Terminal Aerodrome Forecast
Issued by NWS Amarillo, TX

Home | Current Version | Previous Version | Text Only | Print | Product List | Glossary On
Versions: 1 2 3 4 5 6 7 8 9 10 11 12 13 14 15 16 17 18 19 20 21 22
000
FTUS44 KAMA 060100 AAA
TAFGUY
TAF AMD
KGUY 060133Z 0602/0624 18012KT P6SM VCSH SCT040 BKN090
      TEMPO 0602/0604 4SM SHRA BKN040
     FM060400 18011KT P6SM SCT200
     FM061500 21020G30KT P6SM SCT200=

USA.gov is the U.S. government's official web portal to all federal, state and local government web resources and services.